Time;durP1;ratioP1;P1;durP2;ratioP2;P2;SDS_P1;SDS_P2;PMS_P1;PMS_P2;Temp;Humidity;BMP_temperature;BMP_pressure;BME280_temperature;BME280_humidity;BME280_pressure;Samples;Min_cycle;Max_cycle;Signal;HPM_P1;HPM_P2
2024/02/18 00:10:00;;;;;;;10.33;3.60;;;;;;;1.31;100.00;101428.03;31368223;28;20052;-75
2024/02/18 00:25:06;;;;;;;10.20;4.17;;;;;;;1.17;100.00;101419.47;31360958;28;20107;-76
2024/02/18 00:40:08;;;;;;;13.03;3.70;;;;;;;0.95;100.00;101418.59;31335849;28;20056;-76
2024/02/18 00:55:10;;;;;;;24.00;4.00;;;;;;;0.58;100.00;101379.28;31363487;28;20045;-74
2024/02/18 01:10:13;;;;;;;12.00;3.87;;;;;;;0.72;100.00;101371.81;31364583;28;20057;-75
2024/02/18 01:25:15;;;;;;;25.80;4.10;;;;;;;1.20;100.00;101370.66;31362620;28;20051;-80
2024/02/18 01:40:17;;;;;;;16.53;3.87;;;;;;;1.75;100.00;101343.66;31432044;28;20060;-79
2024/02/18 01:55:21;;;;;;;23.77;4.23;;;;;;;1.66;100.00;101335.69;31328788;28;20045;-79
2024/02/18 02:10:23;;;;;;;19.50;5.23;;;;;;;1.48;100.00;101361.03;31360254;28;20056;-80
2024/02/18 02:25:26;;;;;;;26.80;5.50;;;;;;;1.46;100.00;101387.31;31295364;28;20410;-76
2024/02/18 02:40:28;;;;;;;12.60;4.20;;;;;;;1.41;100.00;101376.84;31324888;28;20078;-79
2024/02/18 02:55:30;;;;;;;9.40;3.93;;;;;;;1.10;100.00;101363.81;31330179;28;20486;-80
2024/02/18 03:10:32;;;;;;;8.17;3.97;;;;;;;1.27;100.00;101352.22;31391662;28;20481;-79
2024/02/18 03:25:35;;;;;;;15.00;4.47;;;;;;;0.92;100.00;101349.75;31385635;28;20044;-80
2024/02/18 03:40:37;;;;;;;21.30;7.33;;;;;;;1.37;100.00;101346.47;31397634;28;20069;-79
2024/02/18 03:55:39;;;;;;;15.40;6.77;;;;;;;1.15;100.00;101352.94;31362848;28;20049;-76
2024/02/18 04:10:41;;;;;;;29.33;10.13;;;;;;;1.34;100.00;101355.16;31380541;28;20053;-80
2024/02/18 04:25:43;;;;;;;26.27;6.70;;;;;;;1.69;100.00;101342.28;31361950;28;20112;-76
2024/02/18 04:40:45;;;;;;;9.33;5.90;;;;;;;1.45;100.00;101356.31;31347413;28;20509;-81
2024/02/18 04:55:47;;;;;;;20.00;4.73;;;;;;;1.54;100.00;101365.09;31344953;28;20136;-80
2024/02/18 05:10:49;;;;;;;24.90;6.63;;;;;;;1.28;100.00;101353.78;31365993;28;20085;-79
2024/02/18 05:25:51;;;;;;;19.27;4.97;;;;;;;1.36;100.00;101377.81;31317865;28;20052;-80
2024/02/18 05:40:53;;;;;;;15.27;5.47;;;;;;;1.56;100.00;101378.94;31338640;28;20084;-79
2024/02/18 05:55:55;;;;;;;15.17;6.27;;;;;;;1.50;100.00;101358.81;31374110;28;20127;-80
2024/02/18 06:10:57;;;;;;;34.37;7.67;;;;;;;1.74;100.00;101357.38;31368192;28;20052;-80
2024/02/18 06:26:02;;;;;;;21.03;7.47;;;;;;;1.86;100.00;101360.91;31308961;28;20132;-80
2024/02/18 06:41:04;;;;;;;20.33;4.63;;;;;;;2.15;100.00;101357.28;31352362;28;20069;-80
2024/02/18 06:56:06;;;;;;;19.83;8.43;;;;;;;2.12;100.00;101352.63;31355491;28;20136;-80
2024/02/18 07:11:08;;;;;;;24.23;9.10;;;;;;;1.91;100.00;101357.22;31365057;28;20060;-82
2024/02/18 07:26:12;;;;;;;23.03;8.07;;;;;;;2.63;100.00;101345.09;31352386;28;20509;-80
2024/02/18 07:41:14;;;;;;;18.90;6.23;;;;;;;2.96;100.00;101332.38;31366767;28;20072;-82
2024/02/18 07:56:16;;;;;;;16.87;5.07;;;;;;;2.92;100.00;101326.13;31352410;28;20045;-82
2024/02/18 08:11:18;;;;;;;16.40;5.23;;;;;;;3.13;100.00;101328.66;31370246;28;20513;-83
2024/02/18 08:26:24;;;;;;;26.33;7.93;;;;;;;3.50;100.00;101329.38;31384178;28;20467;-82
2024/02/18 08:41:26;;;;;;;14.20;6.63;;;;;;;3.02;100.00;101323.00;31380244;28;20518;-84
2024/02/18 08:56:28;;;;;;;18.73;5.80;;;;;;;2.91;100.00;101308.47;31364661;28;20041;-83
2024/02/18 09:11:30;;;;;;;45.13;8.23;;;;;;;2.99;100.00;101309.47;31382988;28;20075;-82
2024/02/18 09:26:33;;;;;;;14.50;5.73;;;;;;;3.09;100.00;101304.41;31345378;28;20514;-83
2024/02/18 09:41:36;;;;;;;26.13;6.93;;;;;;;3.34;100.00;101282.88;31361257;28;20059;-83
2024/02/18 09:56:39;;;;;;;22.63;6.00;;;;;;;3.34;100.00;101288.25;31362420;28;20049;-81
2024/02/18 10:11:41;;;;;;;10.10;5.90;;;;;;;3.55;100.00;101286.16;31406862;28;20095;-80
2024/02/18 10:26:45;;;;;;;22.60;6.60;;;;;;;3.46;100.00;101280.16;31339559;28;20057;-83
2024/02/18 10:42:02;;;;;;;16.03;6.43;;;;;;;3.70;100.00;101290.81;31368894;28;20411;-83
2024/02/18 10:57:04;;;;;;;29.87;7.03;;;;;;;3.59;100.00;101279.00;31366413;28;20472;-81
2024/02/18 11:12:09;;;;;;;20.53;7.30;;;;;;;3.63;100.00;101279.09;31337743;28;20489;-79
2024/02/18 11:27:17;;;;;;;25.87;6.03;;;;;;;3.60;100.00;101259.06;31352678;28;20535;-79
2024/02/18 11:42:21;;;;;;;13.03;5.57;;;;;;;3.65;100.00;101256.13;31368981;28;20566;-77
2024/02/18 11:57:22;;;;;;;19.97;5.87;;;;;;;3.33;100.00;101243.75;31336646;28;20057;-79
2024/02/18 12:12:26;;;;;;;19.40;5.77;;;;;;;3.42;100.00;101241.69;31348795;28;20045;-76
2024/02/18 12:27:30;;;;;;;22.50;7.43;;;;;;;3.59;100.00;101241.41;31341083;28;20184;-77
2024/02/18 12:42:32;;;;;;;18.17;6.43;;;;;;;3.60;100.00;101224.16;31343365;28;20061;-75
2024/02/18 12:57:38;;;;;;;;;;;;;;;3.95;100.00;101234.28;31361300;28;20144;-75
2024/02/18 13:12:40;;;;;;;15.87;7.20;;;;;;;3.57;100.00;101232.13;31342701;28;20652;-77
2024/02/18 13:27:43;;;;;;;18.47;7.43;;;;;;;3.57;100.00;101227.53;31346844;28;20490;-77
2024/02/18 13:42:45;;;;;;;11.83;5.60;;;;;;;3.72;100.00;101242.91;31333955;28;20057;-79
2024/02/18 13:57:47;;;;;;;15.40;6.67;;;;;;;3.75;100.00;101239.53;31360103;28;20052;-79
2024/02/18 14:12:52;;;;;;;14.20;6.47;;;;;;;3.71;100.00;101237.88;31345897;28;20491;-78
2024/02/18 14:27:55;;;;;;;13.73;7.07;;;;;;;3.78;100.00;101241.50;31354606;28;20041;-80
2024/02/18 14:42:57;;;;;;;13.10;7.10;;;;;;;3.82;100.00;101243.50;31346684;28;20073;-81
2024/02/18 14:58:03;;;;;;;19.50;7.93;;;;;;;3.95;100.00;101250.41;31332549;28;20069;-74
2024/02/18 15:13:06;;;;;;;16.80;8.70;;;;;;;3.98;100.00;101247.03;31322727;28;20387;-74
2024/02/18 15:28:08;;;;;;;37.47;11.10;;;;;;;4.01;100.00;101257.88;31326907;28;20087;-75
2024/02/18 15:43:11;;;;;;;32.30;10.67;;;;;;;4.05;100.00;101257.94;31315741;28;20065;-73
2024/02/18 15:58:13;;;;;;;21.80;9.10;;;;;;;4.01;100.00;101254.41;31325703;28;20044;-76
2024/02/18 16:13:15;;;;;;;27.57;9.33;;;;;;;3.99;100.00;101264.69;31360159;28;20060;-73
2024/02/18 16:28:18;;;;;;;38.60;15.00;;;;;;;4.16;100.00;101264.38;31371854;28;20045;-75
2024/02/18 16:43:20;;;;;;;25.47;10.60;;;;;;;4.27;100.00;101264.59;31315796;28;20546;-73
2024/02/18 16:58:22;;;;;;;33.20;10.97;;;;;;;4.34;100.00;101262.88;31333100;28;20048;-77
2024/02/18 17:13:24;;;;;;;67.23;25.03;;;;;;;4.31;100.00;101255.50;31338959;28;20048;-73
2024/02/18 17:28:26;;;;;;;31.33;12.03;;;;;;;4.33;100.00;101257.84;31353829;28;20143;-75
2024/02/18 17:43:28;;;;;;;35.57;11.00;;;;;;;4.26;100.00;101254.97;31350691;28;20148;-74
2024/02/18 17:58:30;;;;;;;28.67;11.57;;;;;;;4.33;100.00;101247.88;31346911;28;20172;-76
2024/02/18 18:13:32;;;;;;;31.13;12.00;;;;;;;4.53;100.00;101237.19;31328139;28;20075;-74
2024/02/18 18:28:35;;;;;;;27.10;9.63;;;;;;;4.46;100.00;101232.44;31345745;28;20128;-76
2024/02/18 18:43:37;;;;;;;29.10;10.80;;;;;;;4.60;100.00;101242.72;31342151;28;20056;-80
2024/02/18 18:58:42;;;;;;;31.00;13.20;;;;;;;4.49;100.00;101239.03;31327737;28;20058;-78
2024/02/18 19:13:46;;;;;;;23.33;7.77;;;;;;;4.56;100.00;101239.97;31343746;28;20053;-79
2024/02/18 19:28:49;;;;;;;28.50;10.03;;;;;;;4.53;100.00;101239.88;31358241;28;20426;-80
2024/02/18 19:43:51;;;;;;;28.73;9.00;;;;;;;4.42;100.00;101234.28;31356335;28;20068;-80
2024/02/18 19:58:54;;;;;;;27.73;10.03;;;;;;;4.43;100.00;101235.81;31375468;28;20376;-78
2024/02/18 20:13:56;;;;;;;30.57;9.63;;;;;;;4.55;100.00;101243.78;31353934;28;20176;-78
2024/02/18 20:28:58;;;;;;;20.60;9.43;;;;;;;4.72;100.00;101242.66;31365380;28;20052;-77
2024/02/18 20:44:00;;;;;;;22.47;8.50;;;;;;;4.84;100.00;101249.81;31333124;28;20052;-78
2024/02/18 20:59:02;;;;;;;17.17;8.87;;;;;;;5.00;100.00;101239.75;31334797;28;20426;-77
2024/02/18 21:14:04;;;;;;;26.23;11.73;;;;;;;5.05;100.00;101234.09;31338122;28;20132;-78
2024/02/18 21:29:06;;;;;;;17.73;7.43;;;;;;;5.02;100.00;101230.22;31327683;28;20041;-77
2024/02/18 21:44:08;;;;;;;16.70;7.37;;;;;;;4.94;100.00;101239.28;31357213;28;20426;-77
2024/02/18 21:59:10;;;;;;;19.07;7.37;;;;;;;4.87;100.00;101254.47;31357589;28;20045;-81
2024/02/18 22:14:15;;;;;;;14.40;5.90;;;;;;;4.85;100.00;101272.88;31366886;28;20512;-77
2024/02/18 22:29:17;;;;;;;13.70;5.60;;;;;;;4.93;100.00;101270.00;31364068;28;20041;-78
2024/02/18 22:44:19;;;;;;;10.67;5.17;;;;;;;4.91;100.00;101288.41;31397926;28;20079;-80
2024/02/18 22:59:21;;;;;;;8.17;3.70;;;;;;;4.90;100.00;101284.16;31365735;28;20053;-77
2024/02/18 23:14:23;;;;;;;8.27;3.97;;;;;;;4.85;100.00;101300.56;31340415;28;20047;-79
2024/02/18 23:29:25;;;;;;;4.63;2.80;;;;;;;4.91;100.00;101298.41;31346235;28;20047;-78
2024/02/18 23:44:27;;;;;;;6.70;3.50;;;;;;;4.95;100.00;101297.34;31363739;28;20055;-77
2024/02/18 23:59:29;;;;;;;5.80;2.97;;;;;;;4.85;100.00;101300.56;31368275;28;20384;-77
